createdAt,value
2023-01-25T00:00:54.901Z,30.92
2023-01-25T00:03:24.444Z,29.75
2023-01-25T00:06:00.100Z,31.67
2023-01-25T00:08:28.149Z,29.10
2023-01-25T00:10:58.475Z,28.60
2023-01-25T00:13:27.068Z,28.58
2023-01-25T00:15:55.321Z,29.27
2023-01-25T00:18:24.800Z,35.33
2023-01-25T00:20:53.245Z,35.40
2023-01-25T00:23:21.297Z,34.55
2023-01-25T00:25:49.433Z,37.72
2023-01-25T00:28:17.404Z,37.40
2023-01-25T00:30:45.583Z,34.45
2023-01-25T00:36:30.793Z,34.63
2023-01-25T00:38:59.818Z,32.85
2023-01-25T00:41:27.950Z,38.25
2023-01-25T00:43:55.983Z,34.15
2023-01-25T00:46:24.787Z,32.75
2023-01-25T00:48:54.622Z,32.90
2023-01-25T00:51:24.638Z,35.08
2023-01-25T00:53:53.208Z,35.58
2023-01-25T00:56:21.311Z,34.75
2023-01-25T00:58:49.471Z,36.13
2023-01-25T01:01:19.766Z,35.72
2023-01-25T01:03:47.701Z,42.38
2023-01-25T01:06:15.598Z,40.78
2023-01-25T01:08:44.857Z,38.42
2023-01-25T01:11:14.136Z,42.28
2023-01-25T01:13:42.675Z,40.75
2023-01-25T01:16:13.910Z,39.60
2023-01-25T01:18:44.500Z,45.08
2023-01-25T01:21:13.977Z,48.75
2023-01-25T01:23:42.376Z,41.28
2023-01-25T01:26:36.419Z,45.33
2023-01-25T01:29:08.308Z,44.40
2023-01-25T01:31:38.573Z,49.10
2023-01-25T01:34:14.309Z,45.08
2023-01-25T01:36:42.426Z,41.53
2023-01-25T01:39:10.463Z,41.20
2023-01-25T01:41:40.391Z,36.35
2023-01-25T01:44:17.723Z,41.70
2023-01-25T01:46:53.846Z,41.30
2023-01-25T01:49:27.629Z,40.45
2023-01-25T01:52:04.281Z,42.00
2023-01-25T01:54:41.679Z,37.88
2023-01-25T01:57:14.418Z,40.80
2023-01-25T01:59:47.592Z,39.15
2023-01-25T02:02:16.129Z,43.05
2023-01-25T02:04:48.315Z,37.50
2023-01-25T02:07:20.767Z,39.55
2023-01-25T02:09:51.736Z,41.40
2023-01-25T02:12:24.167Z,38.78
2023-01-25T02:14:53.860Z,40.70
2023-01-25T02:17:27.665Z,37.63
2023-01-25T02:20:05.408Z,43.63
2023-01-25T02:22:41.920Z,43.42
2023-01-25T02:25:14.370Z,45.58
2023-01-25T02:27:47.090Z,45.93
2023-01-25T02:30:15.596Z,46.53
2023-01-25T02:32:45.042Z,47.42
2023-01-25T02:35:21.039Z,49.00
2023-01-25T02:37:51.512Z,43.80
2023-01-25T02:40:21.750Z,49.45
2023-01-25T02:42:49.765Z,49.10
2023-01-25T02:45:22.844Z,52.25
2023-01-25T02:47:50.992Z,52.58
2023-01-25T02:50:19.945Z,49.10
2023-01-25T02:52:47.992Z,52.88
2023-01-25T02:55:16.501Z,46.78
2023-01-25T02:57:47.485Z,56.00
2023-01-25T03:00:17.592Z,60.38
2023-01-25T03:02:46.552Z,63.65
2023-01-25T03:05:14.802Z,59.33
2023-01-25T03:07:42.864Z,58.58
2023-01-25T03:10:13.000Z,53.80
2023-01-25T03:12:41.844Z,58.47
2023-01-25T03:15:11.837Z,58.25
2023-01-25T03:17:40.083Z,61.83
2023-01-25T03:20:08.901Z,64.95
2023-01-25T03:22:36.938Z,65.47
2023-01-25T03:25:07.259Z,64.65
2023-01-25T03:27:38.184Z,75.45
2023-01-25T03:30:14.136Z,69.90
2023-01-25T03:32:42.930Z,76.60
2023-01-25T03:35:16.189Z,84.22
2023-01-25T03:37:44.856Z,80.28
2023-01-25T03:40:14.433Z,78.90
2023-01-25T03:42:46.360Z,80.07
2023-01-25T03:45:16.704Z,84.35
2023-01-25T03:47:44.965Z,84.85
2023-01-25T03:50:13.931Z,86.07
2023-01-25T03:52:45.573Z,89.57
2023-01-25T03:55:14.687Z,85.00
2023-01-25T03:57:45.221Z,89.57
2023-01-25T04:00:15.925Z,82.38
2023-01-25T04:05:18.334Z,89.43
2023-01-25T04:07:46.797Z,89.38
2023-01-25T04:10:17.494Z,89.40
2023-01-25T04:12:47.876Z,92.88
2023-01-25T04:15:18.334Z,89.00
2023-01-25T04:17:46.719Z,85.28
2023-01-25T04:20:25.148Z,89.97
2023-01-25T04:22:54.302Z,85.03
2023-01-25T04:25:26.968Z,89.38
2023-01-25T04:27:55.198Z,90.95
2023-01-25T04:30:24.859Z,90.10
2023-01-25T04:32:53.764Z,89.13
2023-01-25T04:35:28.205Z,89.65
2023-01-25T04:37:56.995Z,92.18
2023-01-25T04:40:30.040Z,90.45
2023-01-25T04:42:58.467Z,95.90
2023-01-25T04:45:28.401Z,91.47
2023-01-25T04:47:58.283Z,99.68
2023-01-25T04:50:27.083Z,86.68
2023-01-25T04:52:55.688Z,92.50
2023-01-25T04:55:24.997Z,96.57
2023-01-25T04:57:57.776Z,91.57
2023-01-25T05:00:25.825Z,88.95
2023-01-25T05:02:55.514Z,82.45
2023-01-25T05:05:23.900Z,85.53
2023-01-25T05:07:54.570Z,79.93
2023-01-25T05:10:22.971Z,84.03
2023-01-25T05:13:09.676Z,83.70
2023-01-25T05:15:38.093Z,93.97
2023-01-25T05:18:07.709Z,88.53
2023-01-25T05:20:36.147Z,88.75
2023-01-25T05:23:04.432Z,92.07
2023-01-25T05:25:50.878Z,90.20
2023-01-25T05:28:26.379Z,87.10
2023-01-25T05:31:14.608Z,87.32
2023-01-25T05:33:44.582Z,88.90
2023-01-25T05:36:13.042Z,85.90
2023-01-25T05:38:41.214Z,91.85
2023-01-25T05:41:11.674Z,89.03
2023-01-25T05:43:39.820Z,92.88
2023-01-25T05:46:09.789Z,88.63
2023-01-25T05:48:38.030Z,95.20
2023-01-25T05:51:07.784Z,80.80
2023-01-25T05:53:36.202Z,93.05
2023-01-25T05:56:08.309Z,89.65
2023-01-25T05:58:36.531Z,88.35
2023-01-25T06:01:06.382Z,88.75
2023-01-25T06:03:44.081Z,84.53
2023-01-25T06:06:13.961Z,85.78
2023-01-25T06:08:43.971Z,90.07
2023-01-25T06:11:13.282Z,87.20
2023-01-25T06:13:45.727Z,89.07
2023-01-25T06:16:14.054Z,90.95
2023-01-25T06:18:42.593Z,89.60
2023-01-25T06:21:24.073Z,90.78
2023-01-25T06:23:52.107Z,92.22
2023-01-25T06:26:20.109Z,94.22
2023-01-25T06:28:48.100Z,90.60
2023-01-25T06:31:19.258Z,86.55
2023-01-25T06:33:50.679Z,95.10
2023-01-25T06:36:23.675Z,93.13
2023-01-25T06:38:53.013Z,87.88
2023-01-25T06:41:21.400Z,87.45
2023-01-25T06:43:51.725Z,87.15
2023-01-25T06:46:20.901Z,85.57
2023-01-25T06:48:49.148Z,85.38
2023-01-25T06:51:17.752Z,85.45
2023-01-25T06:53:48.487Z,88.40
2023-01-25T06:56:18.625Z,89.88
2023-01-25T06:58:47.424Z,92.07
2023-01-25T07:01:19.778Z,88.15
2023-01-25T07:03:49.709Z,91.57
2023-01-25T07:06:18.045Z,90.55
2023-01-25T07:08:47.760Z,91.28
2023-01-25T07:11:18.843Z,83.90
2023-01-25T07:13:48.338Z,92.38
2023-01-25T07:16:19.118Z,90.90
2023-01-25T07:18:47.508Z,90.07
2023-01-25T07:21:17.691Z,87.85
2023-01-25T07:23:47.171Z,86.20
2023-01-25T07:26:18.571Z,82.38
2023-01-25T07:28:47.311Z,82.95
2023-01-25T07:31:16.775Z,85.68
2023-01-25T07:33:45.607Z,85.03
2023-01-25T07:36:14.320Z,82.13
2023-01-25T07:38:42.494Z,85.75
2023-01-25T07:41:13.098Z,81.03
2023-01-25T07:43:41.234Z,89.80
2023-01-25T07:46:14.683Z,82.78
2023-01-25T07:48:48.139Z,78.43
2023-01-25T07:51:23.829Z,73.63
2023-01-25T07:53:54.161Z,75.50
2023-01-25T07:56:25.824Z,72.05
2023-01-25T07:58:55.107Z,75.18
2023-01-25T08:01:25.626Z,73.95
2023-01-25T08:03:57.785Z,68.10
2023-01-25T08:06:27.587Z,73.28
2023-01-25T08:08:56.493Z,67.72
2023-01-25T08:11:29.212Z,64.65
2023-01-25T08:13:57.492Z,68.32
2023-01-25T08:16:27.551Z,68.03
2023-01-25T08:18:58.498Z,64.78
2023-01-25T08:21:30.106Z,65.18
2023-01-25T08:23:59.743Z,69.15
2023-01-25T08:26:29.965Z,69.00
2023-01-25T08:28:58.376Z,63.10
2023-01-25T08:31:28.748Z,69.85
2023-01-25T08:33:58.276Z,68.25
2023-01-25T08:36:28.191Z,75.05
2023-01-25T08:38:58.907Z,69.55
2023-01-25T08:41:29.747Z,70.75
2023-01-25T08:43:58.524Z,70.18
2023-01-25T08:46:30.536Z,74.25
2023-01-25T08:49:02.552Z,75.85
2023-01-25T08:51:33.011Z,76.05
2023-01-25T08:54:04.978Z,72.60
2023-01-25T08:56:34.575Z,76.30
2023-01-25T08:59:02.833Z,70.38
2023-01-25T09:01:30.889Z,78.88
2023-01-25T09:03:59.414Z,71.45
2023-01-25T09:06:28.408Z,72.45
2023-01-25T09:08:56.752Z,77.35
2023-01-25T09:11:25.058Z,72.57
2023-01-25T09:13:54.823Z,75.07
2023-01-25T09:16:29.428Z,72.05
2023-01-25T09:18:59.111Z,76.85
2023-01-25T09:21:27.503Z,75.60
2023-01-25T09:24:11.981Z,78.05
2023-01-25T09:26:46.063Z,81.97
2023-01-25T09:29:19.507Z,80.47
2023-01-25T09:31:48.005Z,78.80
2023-01-25T09:34:28.198Z,83.18
2023-01-25T09:36:56.248Z,78.80
2023-01-25T09:39:27.928Z,83.07
2023-01-25T09:42:24.276Z,77.05
2023-01-25T09:45:19.560Z,84.95
2023-01-25T09:47:55.816Z,80.65
2023-01-25T09:50:34.200Z,89.75
2023-01-25T09:53:22.686Z,82.28
2023-01-25T09:55:54.585Z,84.18
2023-01-25T09:58:29.135Z,89.65
2023-01-25T10:01:14.491Z,85.07
2023-01-25T10:03:49.233Z,93.80
2023-01-25T10:06:20.479Z,88.55
2023-01-25T10:08:56.863Z,87.30
2023-01-25T10:11:28.195Z,86.70
2023-01-25T10:13:57.548Z,86.38
2023-01-25T10:16:33.203Z,85.70
2023-01-25T10:19:19.796Z,86.00
2023-01-25T10:21:57.502Z,86.85
2023-01-25T10:24:38.349Z,90.15
2023-01-25T10:27:20.420Z,95.60
2023-01-25T10:29:49.663Z,77.38
2023-01-25T10:32:28.036Z,78.65
2023-01-25T10:34:59.188Z,83.57
2023-01-25T10:37:30.059Z,83.28
2023-01-25T10:40:02.311Z,83.03
2023-01-25T10:42:38.203Z,81.20
2023-01-25T10:45:13.511Z,81.72
2023-01-25T10:47:47.867Z,82.40
2023-01-25T10:50:45.245Z,81.03
2023-01-25T10:53:45.012Z,83.30
2023-01-25T10:56:22.728Z,85.45
2023-01-25T10:58:54.406Z,80.82
2023-01-25T11:01:28.757Z,81.40
2023-01-25T11:03:59.384Z,82.25
2023-01-25T11:06:35.743Z,77.50
2023-01-25T11:09:24.286Z,84.28
2023-01-25T11:11:58.182Z,74.97
2023-01-25T11:14:28.339Z,80.95
2023-01-25T11:16:58.329Z,74.30
2023-01-25T11:19:29.758Z,78.90
2023-01-25T11:21:58.949Z,84.65
2023-01-25T11:24:29.265Z,89.72
2023-01-25T11:27:18.600Z,96.00
2023-01-25T11:29:47.960Z,88.60
2023-01-25T11:32:22.627Z,81.28
2023-01-25T11:34:51.955Z,81.05
2023-01-25T11:37:46.252Z,79.97
2023-01-25T11:40:22.514Z,84.60
2023-01-25T11:43:04.227Z,83.43
2023-01-25T11:46:02.814Z,84.57
2023-01-25T11:48:51.710Z,87.40
2023-01-25T11:51:27.326Z,88.68
2023-01-25T11:54:08.337Z,86.95
2023-01-25T11:56:50.516Z,88.07
2023-01-25T11:59:39.094Z,83.10
2023-01-25T12:02:33.017Z,89.80
2023-01-25T12:05:21.875Z,93.00
2023-01-25T12:08:02.008Z,91.40
2023-01-25T12:10:38.348Z,87.72
2023-01-25T12:13:17.814Z,85.15
2023-01-25T12:16:07.709Z,93.13
2023-01-25T12:19:07.052Z,92.43
2023-01-25T12:21:51.435Z,88.38
2023-01-25T12:24:37.594Z,95.43
2023-01-25T12:27:19.363Z,93.20
2023-01-25T12:29:52.231Z,92.85
2023-01-25T12:32:27.388Z,93.97
2023-01-25T12:35:12.761Z,88.70
2023-01-25T12:37:44.841Z,85.50
2023-01-25T12:40:17.993Z,91.68
2023-01-25T12:42:53.281Z,92.88
2023-01-25T12:45:26.606Z,79.85
2023-01-25T12:48:01.409Z,91.40
2023-01-25T12:50:35.979Z,82.45
2023-01-25T12:53:08.414Z,79.90
2023-01-25T12:55:36.396Z,91.05
2023-01-25T12:58:16.405Z,90.40
2023-01-25T13:00:53.398Z,88.47
2023-01-25T13:03:32.847Z,87.20
2023-01-25T13:06:10.675Z,79.82
2023-01-25T13:08:49.127Z,83.00
2023-01-25T13:11:23.773Z,88.57
2023-01-25T13:13:52.109Z,86.50
2023-01-25T13:16:45.277Z,85.85
2023-01-25T13:19:42.255Z,90.53
2023-01-25T13:22:11.745Z,85.50
2023-01-25T13:25:09.416Z,88.97
2023-01-25T13:27:37.956Z,93.63
2023-01-25T13:30:28.308Z,92.40
2023-01-25T13:32:59.312Z,97.38
2023-01-25T13:35:32.557Z,90.97
2023-01-25T13:38:04.947Z,99.13
2023-01-25T13:40:36.588Z,94.13
2023-01-25T13:43:07.561Z,90.90
2023-01-25T13:45:39.711Z,82.53
2023-01-25T13:48:16.699Z,89.78
2023-01-25T13:50:50.437Z,87.15
2023-01-25T13:53:23.982Z,91.25
2023-01-25T13:55:55.001Z,102.03
2023-01-25T13:58:26.272Z,88.88
2023-01-25T14:00:56.542Z,103.15
2023-01-25T14:03:28.227Z,89.38
2023-01-25T14:06:02.715Z,93.45
2023-01-25T14:08:32.425Z,99.80
2023-01-25T14:11:01.350Z,93.43
2023-01-25T14:13:33.699Z,99.75
2023-01-25T14:16:04.452Z,95.60
2023-01-25T14:18:33.585Z,90.70
2023-01-25T14:21:16.370Z,90.15
2023-01-25T14:23:45.269Z,85.87
2023-01-25T14:26:20.719Z,102.32
2023-01-25T14:28:59.620Z,98.75
2023-01-25T14:31:35.751Z,96.45
2023-01-25T14:34:06.157Z,100.35
2023-01-25T14:36:36.577Z,88.85
2023-01-25T14:39:18.409Z,100.80
2023-01-25T14:42:00.521Z,98.43
2023-01-25T14:44:30.887Z,79.15
2023-01-25T14:47:23.748Z,105.38
2023-01-25T14:49:51.844Z,99.68
2023-01-25T14:52:25.207Z,101.85
2023-01-25T14:54:55.543Z,112.38
2023-01-25T14:57:33.350Z,107.50
2023-01-25T15:00:04.971Z,106.18
2023-01-25T15:02:40.308Z,96.82
2023-01-25T15:05:19.726Z,100.25
2023-01-25T15:07:51.741Z,108.45
2023-01-25T15:10:24.166Z,101.78
2023-01-25T15:13:12.725Z,112.47
2023-01-25T15:15:52.871Z,115.80
2023-01-25T15:18:46.001Z,110.57
2023-01-25T15:21:15.698Z,106.63
2023-01-25T15:23:47.081Z,105.47
2023-01-25T15:26:19.932Z,103.13
2023-01-25T15:28:49.288Z,102.03
2023-01-25T15:31:19.922Z,103.13
2023-01-25T15:33:48.079Z,108.82
2023-01-25T15:36:17.722Z,102.90
2023-01-25T15:38:47.589Z,109.15
2023-01-25T15:41:18.413Z,110.25
2023-01-25T15:43:47.245Z,104.70
2023-01-25T15:46:19.014Z,112.82
2023-01-25T15:48:48.686Z,105.32
2023-01-25T15:51:16.807Z,104.15
2023-01-25T15:53:46.785Z,109.70
2023-01-25T15:56:19.143Z,108.90
2023-01-25T15:58:51.530Z,107.32
2023-01-25T16:01:19.936Z,99.72
2023-01-25T16:03:47.876Z,102.70
2023-01-25T16:06:31.641Z,98.85
2023-01-25T16:09:00.247Z,110.97
2023-01-25T16:11:30.019Z,102.40
2023-01-25T16:13:59.036Z,102.70
2023-01-25T16:16:27.147Z,106.63
2023-01-25T16:18:55.435Z,103.68
2023-01-25T16:21:23.625Z,103.30
2023-01-25T16:23:51.708Z,105.20
2023-01-25T16:26:22.700Z,121.22
2023-01-25T16:28:52.632Z,106.32
2023-01-25T16:31:31.742Z,113.15
2023-01-25T16:34:01.040Z,103.35
2023-01-25T16:36:29.672Z,102.50
2023-01-25T16:39:04.898Z,106.43
2023-01-25T16:41:33.872Z,112.47
2023-01-25T16:44:03.315Z,117.80
2023-01-25T16:46:31.733Z,110.40
2023-01-25T16:49:00.250Z,111.97
2023-01-25T16:51:29.494Z,109.05
2023-01-25T16:53:59.681Z,114.65
2023-01-25T16:56:29.292Z,121.95
2023-01-25T16:58:58.818Z,119.53
2023-01-25T17:01:28.466Z,122.05
2023-01-25T17:03:57.111Z,112.25
2023-01-25T17:06:27.093Z,109.13
2023-01-25T17:08:58.870Z,124.40
2023-01-25T17:11:27.695Z,117.15
2023-01-25T17:13:58.264Z,121.20
2023-01-25T17:16:29.720Z,113.60
2023-01-25T17:19:00.096Z,125.70
2023-01-25T17:21:28.700Z,127.80
2023-01-25T17:23:58.771Z,120.22
2023-01-25T17:26:27.944Z,114.82
2023-01-25T17:28:57.730Z,115.43
2023-01-25T17:31:28.084Z,125.55
2023-01-25T17:33:58.392Z,112.30
2023-01-25T17:36:27.356Z,115.53
2023-01-25T17:38:55.428Z,122.43
2023-01-25T17:41:25.285Z,120.38
2023-01-25T17:43:54.161Z,126.80
2023-01-25T17:46:25.523Z,122.22
2023-01-25T17:48:54.367Z,124.90
2023-01-25T17:51:25.158Z,108.75
2023-01-25T17:53:53.770Z,118.65
2023-01-25T17:56:22.026Z,128.98
2023-01-25T17:58:51.962Z,133.00
2023-01-25T18:01:21.862Z,128.10
2023-01-25T18:03:52.890Z,117.53
2023-01-25T18:06:25.050Z,124.18
2023-01-25T18:08:55.494Z,116.53
2023-01-25T18:11:26.013Z,129.43
2023-01-25T18:13:56.963Z,125.43
2023-01-25T18:16:27.321Z,121.35
2023-01-25T18:18:59.051Z,129.75
2023-01-25T18:21:31.684Z,137.65
2023-01-25T18:24:02.496Z,123.00
2023-01-25T18:26:33.380Z,124.60
2023-01-25T18:29:07.570Z,144.60
2023-01-25T18:31:37.158Z,137.88
2023-01-25T18:34:05.387Z,141.20
2023-01-25T18:36:34.835Z,139.05
2023-01-25T18:39:03.545Z,127.10
2023-01-25T18:41:31.611Z,137.45
2023-01-25T18:43:59.865Z,119.40
2023-01-25T18:46:28.269Z,133.23
2023-01-25T18:48:57.142Z,131.07
2023-01-25T18:51:26.239Z,130.40
2023-01-25T18:53:55.800Z,117.20
2023-01-25T18:56:23.977Z,118.97
2023-01-25T18:58:53.443Z,128.30
2023-01-25T19:01:23.686Z,126.03
2023-01-25T19:03:52.556Z,131.50
2023-01-25T19:06:22.693Z,129.60
2023-01-25T19:08:54.360Z,120.55
2023-01-25T19:11:24.885Z,134.57
2023-01-25T19:13:53.702Z,130.88
2023-01-25T19:16:24.573Z,125.63
2023-01-25T19:18:54.965Z,126.88
2023-01-25T19:21:25.170Z,132.07
2023-01-25T19:23:54.293Z,130.18
2023-01-25T19:26:26.167Z,122.32
2023-01-25T19:28:55.130Z,132.07
2023-01-25T19:31:25.341Z,125.55
2023-01-25T19:33:56.553Z,133.07
2023-01-25T19:36:25.424Z,129.07
2023-01-25T19:38:53.580Z,122.47
2023-01-25T19:41:25.628Z,126.95
2023-01-25T19:43:55.169Z,123.20
2023-01-25T19:46:25.387Z,132.15
2023-01-25T19:48:54.965Z,106.38
2023-01-25T19:51:25.063Z,125.38
2023-01-25T19:53:58.472Z,116.82
2023-01-25T19:58:56.935Z,122.32
2023-01-25T20:01:29.353Z,132.25
2023-01-25T20:03:59.619Z,128.13
2023-01-25T20:06:28.151Z,124.75
2023-01-25T20:08:57.511Z,111.68
2023-01-25T20:11:30.001Z,130.55
2023-01-25T20:14:00.404Z,93.13
2023-01-25T20:16:30.748Z,118.43
2023-01-25T20:18:59.681Z,123.00
2023-01-25T20:21:29.687Z,134.23
2023-01-25T20:24:01.010Z,118.15
2023-01-25T20:26:32.501Z,124.90
2023-01-25T20:29:01.440Z,119.22
2023-01-25T20:31:33.551Z,112.05
2023-01-25T20:34:05.118Z,117.47
2023-01-25T20:36:35.829Z,115.30
2023-01-25T20:39:05.493Z,102.40
2023-01-25T20:41:35.851Z,116.22
2023-01-25T20:44:08.831Z,116.53
2023-01-25T20:46:38.953Z,98.15
2023-01-25T20:49:09.614Z,90.50
2023-01-25T20:51:38.536Z,92.63
2023-01-25T20:54:07.110Z,89.45
2023-01-25T20:56:41.128Z,98.63
2023-01-25T20:59:10.280Z,97.35
2023-01-25T21:01:38.622Z,96.10
2023-01-25T21:04:09.589Z,91.18
2023-01-25T21:06:38.849Z,92.63
2023-01-25T21:09:07.684Z,84.97
2023-01-25T21:11:37.542Z,87.85
2023-01-25T21:14:06.325Z,84.80
2023-01-25T21:16:34.434Z,84.10
2023-01-25T21:19:06.621Z,80.13
2023-01-25T21:21:36.868Z,86.97
2023-01-25T21:24:05.929Z,76.97
2023-01-25T21:26:35.929Z,72.80
2023-01-25T21:29:07.334Z,74.32
2023-01-25T21:31:37.315Z,67.32
2023-01-25T21:34:08.371Z,65.65
2023-01-25T21:36:36.395Z,70.30
2023-01-25T21:39:05.696Z,69.68
2023-01-25T21:41:35.060Z,64.72
2023-01-25T21:44:21.688Z,64.20
2023-01-25T21:50:02.773Z,66.80
2023-01-25T21:52:31.702Z,63.67
2023-01-25T21:54:59.755Z,65.20
2023-01-25T21:57:27.910Z,58.03
2023-01-25T21:59:56.091Z,66.03
2023-01-25T22:02:25.588Z,53.63
2023-01-25T22:04:53.819Z,60.28
2023-01-25T22:07:22.297Z,57.42
2023-01-25T22:09:51.652Z,58.72
2023-01-25T22:12:19.684Z,59.28
2023-01-25T22:14:47.683Z,62.40
2023-01-25T22:17:15.664Z,59.83
2023-01-25T22:19:45.690Z,58.47
2023-01-25T22:22:23.433Z,63.22
2023-01-25T22:24:54.008Z,57.80
2023-01-25T22:27:33.357Z,54.38
2023-01-25T22:30:02.271Z,61.03
2023-01-25T22:32:31.207Z,56.40
2023-01-25T22:35:00.703Z,49.80
2023-01-25T22:37:28.808Z,49.55
2023-01-25T22:39:58.498Z,55.33
2023-01-25T22:42:26.585Z,45.80
2023-01-25T22:44:54.839Z,51.40
2023-01-25T22:47:22.838Z,53.35
2023-01-25T22:49:50.781Z,51.45
2023-01-25T22:52:20.204Z,51.33
2023-01-25T22:54:50.190Z,52.40
2023-01-25T22:57:18.277Z,45.88
2023-01-25T22:59:46.265Z,43.40
2023-01-25T23:02:14.155Z,42.85
2023-01-25T23:04:42.121Z,39.33
2023-01-25T23:07:18.944Z,44.50
2023-01-25T23:09:51.569Z,41.22
2023-01-25T23:12:20.028Z,44.65
2023-01-25T23:14:54.336Z,50.03
2023-01-25T23:17:42.623Z,41.10
2023-01-25T23:20:15.130Z,45.40
2023-01-25T23:22:43.436Z,41.78
2023-01-25T23:25:14.173Z,44.55
2023-01-25T23:27:42.425Z,41.80
2023-01-25T23:30:12.641Z,44.53
2023-01-25T23:32:49.222Z,41.22
2023-01-25T23:35:19.357Z,36.55
2023-01-25T23:37:48.546Z,35.70
2023-01-25T23:40:19.024Z,35.45
2023-01-25T23:42:47.610Z,42.25
2023-01-25T23:45:16.506Z,39.42
2023-01-25T23:47:44.461Z,41.35
2023-01-25T23:50:13.807Z,37.80
2023-01-25T23:52:41.993Z,38.42
2023-01-25T23:55:11.077Z,44.47
2023-01-25T23:57:40.404Z,40.63
